Time;durP1;ratioP1;P1;durP2;ratioP2;P2;SDS_P1;SDS_P2;PMS_P1;PMS_P2;Temp;Humidity;BMP_temperature;BMP_pressure;BME280_temperature;BME280_humidity;BME280_pressure;Samples;Min_cycle;Max_cycle;Signal;HPM_P1;HPM_P2
2022/04/14 00:02:00;;;;;;;;;;;;;;;11.33;46.78;100397.38;4397163;32;33567;-87
2022/04/14 00:04:35;;;;;;;;;;;;;;;11.32;46.95;100399.22;4397279;32;33313;-87
2022/04/14 00:07:18;;;;;;;;;;;;;;;11.30;47.00;100397.66;4397179;32;33576;-86
2022/04/14 00:09:48;;;;;;;;;;;;;;;11.28;47.17;100395.12;4389736;32;34957;-91
2022/04/14 00:12:16;;;;;;;;;;;;;;;11.25;47.40;100388.41;4385286;32;34439;-89
2022/04/14 00:14:44;;;;;;;;;;;;;;;11.11;47.71;100394.09;4398311;32;33374;-86
2022/04/14 00:17:20;;;;;;;;;;;;;;;11.12;47.69;100393.13;4385143;32;33885;-86
2022/04/14 00:19:48;;;;;;;;;;;;;;;11.10;47.71;100387.06;4372500;32;33885;-86
2022/04/14 00:22:33;;;;;;;;;;;;;;;11.12;47.69;100390.44;4399348;32;34473;-86
2022/04/14 00:25:27;;;;;;;;;;;;;;;11.12;47.78;100393.94;4397019;32;33103;-86
2022/04/14 00:28:02;;;;;;;;;;;;;;;11.05;47.84;100395.44;4375553;32;33754;-87
2022/04/14 00:30:30;;;;;;;;;;;;;;;11.05;47.69;100395.44;4387896;32;34960;-86
2022/04/14 00:32:58;;;;;;;;;;;;;;;11.03;47.59;100393.91;4369389;32;34698;-87
2022/04/14 00:35:27;;;;;;;;;;;;;;;10.92;47.95;100386.84;4377395;32;33472;-86
2022/04/14 00:37:55;;;;;;;;;;;;;;;10.82;48.21;100388.59;4378234;32;34540;-87
2022/04/14 00:40:23;;;;;;;;;;;;;;;10.85;48.11;100396.31;4374985;32;34658;-86
2022/04/14 00:43:04;;;;;;;;;;;;;;;10.81;48.11;100400.22;4383018;32;34069;-90
2022/04/14 00:45:34;;;;;;;;;;;;;;;10.75;48.31;100392.75;4379231;32;32261;-90
2022/04/14 00:48:04;;;;;;;;;;;;;;;10.69;48.38;100384.47;4389344;32;34084;-86
2022/04/14 00:50:41;;;;;;;;;;;;;;;10.60;48.51;100388.75;4378091;32;34034;-86
2022/04/14 00:53:11;;;;;;;;;;;;;;;10.53;48.54;100384.94;4378386;32;35940;-85
2022/04/14 00:55:42;;;;;;;;;;;;;;;10.50;48.73;100384.34;4377994;32;32516;-86
2022/04/14 00:58:14;;;;;;;;;;;;;;;10.48;48.89;100380.97;4378298;32;34467;-90
2022/04/14 01:00:44;;;;;;;;;;;;;;;10.56;48.86;100387.31;4391900;32;36177;-86
2022/04/14 01:03:21;;;;;;;;;;;;;;;10.57;48.47;100389.00;4390195;32;34208;-87
2022/04/14 01:05:50;;;;;;;;;;;;;;;10.54;48.90;100386.59;4377287;32;32421;-86
2022/04/14 01:08:19;;;;;;;;;;;;;;;10.47;48.78;100389.94;4381283;32;34497;-90
2022/04/14 01:10:50;;;;;;;;;;;;;;;10.35;48.68;100385.63;4376289;32;35574;-86
2022/04/14 01:13:21;;;;;;;;;;;;;;;10.38;48.69;100391.53;4372377;32;34383;-87
2022/04/14 01:16:09;;;;;;;;;;;;;;;10.36;48.78;100385.50;4379045;32;34280;-86
2022/04/14 01:18:36;;;;;;;;;;;;;;;10.29;48.70;100380.84;4361905;32;34459;-86
2022/04/14 01:21:05;;;;;;;;;;;;;;;10.26;48.85;100391.69;4377672;32;35427;-88
2022/04/14 01:23:42;;;;;;;;;;;;;;;10.32;49.07;100384.09;4388834;32;34366;-88
2022/04/14 01:26:19;;;;;;;;;;;;;;;10.26;49.07;100389.03;4376638;32;32338;-87
2022/04/14 01:28:48;;;;;;;;;;;;;;;10.22;48.97;100388.47;4381742;32;34529;-87
2022/04/14 01:31:16;;;;;;;;;;;;;;;10.30;48.92;100378.03;4364801;32;34049;-87
2022/04/14 01:33:43;;;;;;;;;;;;;;;10.24;48.95;100375.03;4369394;32;34039;-91
2022/04/14 01:36:15;;;;;;;;;;;;;;;10.18;48.92;100383.53;4369899;32;33416;-89
2022/04/14 01:39:24;;;;;;;;;;;;;;;10.15;48.76;100384.62;4372916;32;34741;-86
2022/04/14 01:41:55;;;;;;;;;;;;;;;10.11;48.53;100390.34;4363642;32;35122;-90
2022/04/14 01:44:27;;;;;;;;;;;;;;;10.06;48.57;100393.37;4374257;32;33949;-87
2022/04/14 01:46:56;;;;;;;;;;;;;;;9.91;48.85;100393.75;4370315;32;34298;-89
2022/04/14 01:49:44;;;;;;;;;;;;;;;9.77;49.21;100392.22;4368320;32;34200;-89
2022/04/14 01:52:16;;;;;;;;;;;;;;;9.85;48.80;100383.63;4351076;32;33885;-86
2022/04/14 01:54:53;;;;;;;;;;;;;;;9.48;49.69;100398.19;4369043;32;34431;-89
2022/04/14 01:57:23;;;;;;;;;;;;;;;9.62;49.37;100395.28;4381460;32;34321;-91
2022/04/14 01:59:59;;;;;;;;;;;;;;;9.87;49.09;100398.47;4368684;32;34169;-85
2022/04/14 02:02:27;;;;;;;;;;;;;;;9.89;48.94;100388.56;4368213;32;34697;-87
2022/04/14 02:05:00;;;;;;;;;;;;;;;9.86;48.90;100391.47;4368837;32;35178;-85
2022/04/14 02:07:48;;;;;;;;;;;;;;;9.82;48.85;100387.38;4357917;32;34102;-84
2022/04/14 02:10:20;;;;;;;;;;;;;;;9.83;48.76;100382.91;4363078;32;33604;-87
2022/04/14 02:13:25;;;;;;;;;;;;;;;9.74;48.93;100394.28;4368816;32;35159;-85
2022/04/14 02:16:13;;;;;;;;;;;;;;;9.65;49.17;100387.88;4358193;32;35993;-87
2022/04/14 02:18:45;;;;;;;;;;;;;;;9.68;49.33;100397.44;4371362;32;32415;-86
2022/04/14 02:21:15;;;;;;;;;;;;;;;9.65;49.39;100387.88;4380912;32;34105;-86
2022/04/14 02:24:04;;;;;;;;;;;;;;;9.63;49.15;100391.66;4368727;32;35337;-86
2022/04/14 02:26:32;;;;;;;;;;;;;;;9.65;49.08;100387.06;4358262;32;33744;-86
2022/04/14 02:29:01;;;;;;;;;;;;;;;9.46;49.33;100394.81;4386449;32;32787;-86
2022/04/14 02:31:34;;;;;;;;;;;;;;;9.44;49.52;100400.25;4386939;32;34236;-86
2022/04/14 02:34:02;;;;;;;;;;;;;;;9.56;49.10;100396.59;4398487;32;34053;-86
2022/04/14 02:36:31;;;;;;;;;;;;;;;9.47;49.53;100399.16;4397058;32;33966;-88
2022/04/14 02:39:22;;;;;;;;;;;;;;;9.47;49.47;100405.31;4388569;32;34146;-84
2022/04/14 02:41:50;;;;;;;;;;;;;;;9.37;49.51;100398.22;4398979;32;33596;-87
2022/04/14 02:44:40;;;;;;;;;;;;;;;9.42;49.37;100399.53;4398412;32;35150;-86
2022/04/14 02:47:08;;;;;;;;;;;;;;;9.25;49.91;100393.88;4398369;32;35483;-85
2022/04/14 02:49:40;;;;;;;;;;;;;;;9.39;50.01;100390.97;4385504;32;32900;-84
2022/04/14 02:52:16;;;;;;;;;;;;;;;9.48;49.86;100392.87;4398264;32;34784;-85
2022/04/14 02:54:45;;;;;;;;;;;;;;;9.39;49.82;100383.84;4398175;32;35304;-87
2022/04/14 02:57:17;;;;;;;;;;;;;;;9.35;50.08;100394.84;4398157;32;36485;-89
2022/04/14 02:59:49;;;;;;;;;;;;;;;9.43;49.93;100387.94;4398685;32;34877;-85
2022/04/14 03:02:19;;;;;;;;;;;;;;;9.38;49.79;100384.78;4385050;32;34009;-85
2022/04/14 03:04:49;;;;;;;;;;;;;;;9.32;49.92;100381.78;4397829;32;35944;-85
2022/04/14 03:07:32;;;;;;;;;;;;;;;9.18;50.05;100384.72;4396094;32;34848;-88
2022/04/14 03:10:04;;;;;;;;;;;;;;;9.18;49.95;100384.72;4399216;32;33547;-85
2022/04/14 03:12:42;;;;;;;;;;;;;;;8.91;50.59;100393.00;4374423;32;34328;-90
2022/04/14 03:15:12;;;;;;;;;;;;;;;9.09;50.14;100393.41;4385864;32;34511;-85
2022/04/14 03:17:41;;;;;;;;;;;;;;;9.10;49.86;100393.25;4399051;32;34633;-86
2022/04/14 03:20:09;;;;;;;;;;;;;;;9.01;50.40;100393.16;4373239;32;32102;-86
2022/04/14 03:22:47;;;;;;;;;;;;;;;9.00;50.39;100389.63;4398888;32;33547;-84
2022/04/14 03:25:15;;;;;;;;;;;;;;;8.99;50.55;100389.78;4386041;32;35135;-87
2022/04/14 03:28:03;;;;;;;;;;;;;;;9.00;50.50;100397.59;4398565;32;35082;-86
2022/04/14 03:30:35;;;;;;;;;;;;;;;8.95;50.76;100389.16;4397430;32;34589;-85
2022/04/14 03:33:23;;;;;;;;;;;;;;;8.51;51.85;100388.25;4388250;32;34770;-85
2022/04/14 03:35:50;;;;;;;;;;;;;;;8.62;51.30;100397.06;4385396;32;34478;-85
2022/04/14 03:38:43;;;;;;;;;;;;;;;8.51;51.55;100393.56;4379110;32;34878;-86
2022/04/14 03:41:13;;;;;;;;;;;;;;;8.54;51.51;100396.81;4400259;32;34333;-85
2022/04/14 03:43:43;;;;;;;;;;;;;;;8.53;51.51;100397.78;4398349;32;34020;-86
2022/04/14 03:46:14;;;;;;;;;;;;;;;8.49;51.71;100396.31;4397928;32;37358;-86
2022/04/14 03:48:58;;;;;;;;;;;;;;;8.68;51.04;100396.59;4397441;32;34746;-89
2022/04/14 03:51:26;;;;;;;;;;;;;;;8.58;51.07;100400.06;4397356;32;33624;-89
2022/04/14 03:53:55;;;;;;;;;;;;;;;8.49;51.29;100406.94;4397073;32;33601;-86
2022/04/14 03:56:25;;;;;;;;;;;;;;;8.43;51.49;100409.22;4385383;32;33517;-86
2022/04/14 03:58:54;;;;;;;;;;;;;;;8.40;51.38;100411.25;4385088;32;33595;-86
2022/04/14 04:01:28;;;;;;;;;;;;;;;8.42;51.36;100410.19;4397598;32;33573;-85
2022/04/14 04:04:17;;;;;;;;;;;;;;;8.53;50.93;100408.38;4398930;32;34232;-86
2022/04/14 04:06:45;;;;;;;;;;;;;;;8.48;51.24;100407.03;4385437;32;33884;-86
2022/04/14 04:09:21;;;;;;;;;;;;;;;8.56;51.12;100408.16;4399329;32;35011;-86
2022/04/14 04:12:09;;;;;;;;;;;;;;;8.68;50.81;100407.22;4397301;32;32369;-87
2022/04/14 04:14:45;;;;;;;;;;;;;;;8.58;50.73;100400.94;4398999;32;34799;-87
2022/04/14 04:17:15;;;;;;;;;;;;;;;8.65;50.56;100410.13;4400098;32;35099;-85
2022/04/14 04:20:05;;;;;;;;;;;;;;;8.73;50.29;100417.47;4389791;32;34466;-86
2022/04/14 04:22:36;;;;;;;;;;;;;;;8.71;50.58;100406.16;4401520;32;34247;-86
2022/04/14 04:25:20;;;;;;;;;;;;;;;8.75;50.70;100412.88;4363603;32;33963;-91
2022/04/14 04:27:51;;;;;;;;;;;;;;;8.71;50.77;100416.75;4387106;32;35836;-85
2022/04/14 04:30:55;;;;;;;;;;;;;;;8.68;50.79;100409.00;4399313;32;34360;-86
2022/04/14 04:33:59;;;;;;;;;;;;;;;8.61;50.63;100421.91;4400227;32;33052;-85
2022/04/14 04:36:27;;;;;;;;;;;;;;;8.59;50.84;100415.00;4386512;32;33369;-87
2022/04/14 04:39:13;;;;;;;;;;;;;;;8.17;52.17;100422.66;4399859;32;34538;-89
2022/04/14 04:41:41;;;;;;;;;;;;;;;8.63;51.02;100411.19;4400168;32;34186;-88
2022/04/14 04:44:38;;;;;;;;;;;;;;;8.66;50.75;100416.25;4398655;32;34278;-86
2022/04/14 04:47:06;;;;;;;;;;;;;;;8.66;50.82;100426.84;4386449;32;33062;-86
2022/04/14 04:49:53;;;;;;;;;;;;;;;8.71;50.76;100425.53;4398946;32;35193;-86
2022/04/14 04:52:26;;;;;;;;;;;;;;;8.44;51.42;100432.09;4387061;32;35156;-85
2022/04/14 04:55:14;;;;;;;;;;;;;;;8.63;51.17;100432.41;4398602;32;34169;-85
2022/04/14 04:57:42;;;;;;;;;;;;;;;8.67;51.30;100432.06;4386717;32;33846;-85
2022/04/14 05:00:19;;;;;;;;;;;;;;;8.82;51.09;100438.00;4400702;32;35216;-85
2022/04/14 05:03:27;;;;;;;;;;;;;;;8.83;51.01;100437.03;4399215;32;34034;-85
2022/04/14 05:06:15;;;;;;;;;;;;;;;8.82;50.67;100440.66;4388861;32;33924;-88
2022/04/14 05:08:47;;;;;;;;;;;;;;;8.82;50.75;100446.78;4374733;32;32853;-86
2022/04/14 05:11:16;;;;;;;;;;;;;;;8.93;50.72;100445.97;4400390;32;33961;-85
2022/04/14 05:14:21;;;;;;;;;;;;;;;8.96;50.78;100446.59;4391453;32;34235;-86
2022/04/14 05:16:50;;;;;;;;;;;;;;;9.00;50.75;100447.19;4386304;32;33272;-85
2022/04/14 05:19:19;;;;;;;;;;;;;;;9.05;50.53;100452.97;4398748;32;33784;-87
2022/04/14 05:21:48;;;;;;;;;;;;;;;9.15;50.46;100451.28;4399645;32;34201;-85
2022/04/14 05:26:55;;;;;;;;;;;;;;;9.33;50.40;100449.84;4402098;27;33243;-84
2022/04/14 05:29:23;;;;;;;;;;;;;;;9.46;50.77;100448.75;4353314;32;33971;-85
2022/04/14 05:31:51;;;;;;;;;;;;;;;9.58;50.88;100457.56;4382796;32;34838;-85
2022/04/14 05:34:18;;;;;;;;;;;;;;;9.71;50.92;100455.62;4362906;32;34941;-84
2022/04/14 05:36:45;;;;;;;;;;;;;;;9.77;50.78;100448.03;4361610;32;33509;-84
2022/04/14 05:39:13;;;;;;;;;;;;;;;9.53;50.52;100454.47;4384961;32;34157;-84
2022/04/14 05:41:41;;;;;;;;;;;;;;;10.01;49.96;100461.16;4384960;32;36081;-85
2022/04/14 05:44:08;;;;;;;;;;;;;;;10.11;49.90;100454.97;4384286;32;34427;-83
2022/04/14 05:46:35;;;;;;;;;;;;;;;10.33;49.44;100460.22;4383920;32;33630;-84
2022/04/14 05:49:03;;;;;;;;;;;;;;;10.50;49.10;100459.69;4345330;32;33167;-82
2022/04/14 05:51:30;;;;;;;;;;;;;;;10.60;48.08;100460.59;4370070;32;35524;-83
2022/04/14 05:53:58;;;;;;;;;;;;;;;10.87;47.69;100452.09;4383901;32;34290;-85
2022/04/14 05:56:25;;;;;;;;;;;;;;;10.93;47.24;100449.75;4370620;32;33362;-82
2022/04/14 05:58:53;;;;;;;;;;;;;;;11.17;46.55;100455.66;4370887;32;34165;-84
2022/04/14 06:01:20;;;;;;;;;;;;;;;11.32;46.59;100449.84;4384073;32;36093;-81
2022/04/14 06:03:48;;;;;;;;;;;;;;;11.50;46.20;100442.91;4384727;32;34509;-82
2022/04/14 06:06:15;;;;;;;;;;;;;;;11.63;45.79;100450.72;4384661;32;33276;-88
2022/04/14 06:08:43;;;;;;;;;;;;;;;11.74;45.46;100445.25;4370604;32;34666;-84
2022/04/14 06:11:11;;;;;;;;;;;;;;;11.97;45.30;100441.38;4370661;32;34929;-85
2022/04/14 06:13:38;;;;;;;;;;;;;;;12.15;45.20;100445.91;4357918;32;33814;-83
2022/04/14 06:16:06;;;;;;;;;;;;;;;12.14;45.58;100438.91;4357843;32;32031;-83
2022/04/14 06:18:33;;;;;;;;;;;;;;;12.41;45.06;100439.06;4384086;32;33896;-84
2022/04/14 06:21:01;;;;;;;;;;;;;;;12.62;44.71;100439.75;4384212;32;35400;-84
2022/04/14 06:23:28;;;;;;;;;;;;;;;12.79;44.74;100444.37;4370226;32;35600;-87
2022/04/14 06:25:55;;;;;;;;;;;;;;;12.92;45.15;100444.91;4357744;32;33740;-88
2022/04/14 06:28:23;;;;;;;;;;;;;;;13.03;44.85;100436.75;4370773;32;33170;-86
2022/04/14 06:30:51;;;;;;;;;;;;;;;13.31;44.01;100433.16;4384021;32;35187;-83
2022/04/14 06:33:20;;;;;;;;;;;;;;;13.52;43.53;100439.16;4384816;32;34777;-85
2022/04/14 06:35:48;;;;;;;;;;;;;;;13.63;41.58;100438.94;4370185;32;32474;-85
2022/04/14 06:38:15;;;;;;;;;;;;;;;13.87;40.92;100433.87;4358223;32;34784;-85
2022/04/14 06:40:47;;;;;;;;;;;;;;;14.07;38.97;100431.94;4358545;32;33337;-84
2022/04/14 06:43:14;;;;;;;;;;;;;;;14.14;37.17;100423.13;4384420;32;34595;-84
2022/04/14 06:45:41;;;;;;;;;;;;;;;14.35;38.19;100428.25;4384187;32;33073;-84
2022/04/14 06:48:11;;;;;;;;;;;;;;;14.63;38.88;100430.66;4384434;32;34195;-84
2022/04/14 06:50:40;;;;;;;;;;;;;;;14.79;36.46;100433.47;4384220;32;35361;-83
2022/04/14 06:53:07;;;;;;;;;;;;;;;14.97;34.00;100435.12;4370693;32;33065;-84
2022/04/14 06:55:36;;;;;;;;;;;;;;;14.64;35.58;100433.19;4369551;32;33612;-84
2022/04/14 06:58:04;;;;;;;;;;;;;;;14.87;35.58;100429.03;4383976;32;33808;-85
2022/04/14 07:00:31;;;;;;;;;;;;;;;15.10;35.81;100426.66;4370055;32;35261;-83
2022/04/14 07:02:59;;;;;;;;;;;;;;;15.51;34.37;100420.56;4358915;32;35432;-85
2022/04/14 07:05:26;;;;;;;;;;;;;;;15.53;35.18;100426.63;4344859;32;31794;-84
2022/04/14 07:07:54;;;;;;;;;;;;;;;15.68;35.17;100417.78;4369043;32;33567;-84
2022/04/14 07:10:21;;;;;;;;;;;;;;;15.98;34.75;100419.06;4370995;32;34950;-85
2022/04/14 07:12:49;;;;;;;;;;;;;;;16.30;33.31;100420.00;4369076;32;34389;-83
2022/04/14 07:15:16;;;;;;;;;;;;;;;16.29;33.56;100428.19;4357362;32;31818;-84
2022/04/14 07:17:44;;;;;;;;;;;;;;;16.58;33.32;100420.53;4370304;32;34737;-85
2022/04/14 07:20:11;;;;;;;;;;;;;;;16.29;33.58;100418.31;4358007;32;34378;-88
2022/04/14 07:22:46;;;;;;;;;;;;;;;16.74;29.98;100420.56;4384108;32;34477;-89
2022/04/14 07:25:17;;;;;;;;;;;;;;;16.96;29.54;100420.72;4383294;32;34182;-88
2022/04/14 07:27:45;;;;;;;;;;;;;;;16.92;28.63;100427.44;4383227;32;33985;-88
2022/04/14 07:30:12;;;;;;;;;;;;;;;16.57;29.33;100429.59;4384268;32;34871;-85
2022/04/14 07:32:43;;;;;;;;;;;;;;;16.47;28.07;100418.19;4357956;32;35757;-83
2022/04/14 07:35:11;;;;;;;;;;;;;;;16.77;26.69;100417.53;4384681;32;33611;-82
2022/04/14 07:37:38;;;;;;;;;;;;;;;16.73;27.11;100421.56;4369668;32;35342;-82
2022/04/14 07:40:06;;;;;;;;;;;;;;;16.89;27.18;100426.94;4384119;32;34638;-84
2022/04/14 07:42:35;;;;;;;;;;;;;;;16.77;28.46;100429.12;4374517;32;34562;-82
2022/04/14 07:45:03;;;;;;;;;;;;;;;17.40;25.77;100426.53;4375755;32;34570;-82
2022/04/14 07:47:41;;;;;;;;;;;;;;;17.37;24.42;100425.03;4376586;32;33629;-82
2022/04/14 07:50:11;;;;;;;;;;;;;;;17.22;25.15;100425.88;4376824;32;34467;-82
2022/04/14 07:52:59;;;;;;;;;;;;;;;17.27;24.84;100429.72;4361646;32;34290;-83
2022/04/14 07:55:28;;;;;;;;;;;;;;;17.66;24.24;100426.09;4350893;32;33543;-83
2022/04/14 07:57:57;;;;;;;;;;;;;;;17.77;24.68;100419.53;4375015;32;34207;-82
2022/04/14 08:00:25;;;;;;;;;;;;;;;17.68;24.17;100415.19;4362421;32;34254;-83
2022/04/14 08:02:56;;;;;;;;;;;;;;;17.60;24.18;100423.28;4362196;32;33136;-82
2022/04/14 08:05:27;;;;;;;;;;;;;;;17.79;24.00;100431.75;4360104;32;33410;-82
2022/04/14 08:07:58;;;;;;;;;;;;;;;17.61;23.92;100431.19;4375568;32;33707;-84
2022/04/14 08:10:26;;;;;;;;;;;;;;;17.78;21.83;100429.25;4362457;32;35270;-80
2022/04/14 08:12:53;;;;;;;;;;;;;;;17.72;22.63;100422.72;4362418;32;34331;-81
2022/04/14 08:15:24;;;;;;;;;;;;;;;18.20;20.92;100429.72;4361297;32;33921;-81
2022/04/14 08:17:51;;;;;;;;;;;;;;;18.28;20.91;100426.97;4362708;32;33681;-81
2022/04/14 08:20:22;;;;;;;;;;;;;;;18.59;20.77;100434.03;4361491;32;33421;-80
2022/04/14 08:23:14;;;;;;;;;;;;;;;18.52;19.75;100433.06;4388607;32;34485;-81
2022/04/14 08:25:42;;;;;;;;;;;;;;;18.59;19.64;100435.91;4375207;32;33904;-82
2022/04/14 08:28:30;;;;;;;;;;;;;;;18.82;20.52;100423.22;4364446;32;34095;-81
2022/04/14 08:30:58;;;;;;;;;;;;;;;18.73;20.06;100441.34;4374855;32;35009;-81
2022/04/14 08:33:26;;;;;;;;;;;;;;;18.87;19.84;100431.62;4386421;32;34389;-81
2022/04/14 08:35:53;;;;;;;;;;;;;;;18.57;19.86;100430.69;4373932;32;34120;-81
2022/04/14 08:38:22;;;;;;;;;;;;;;;18.64;20.47;100426.25;4373697;32;34211;-82
2022/04/14 08:40:51;;;;;;;;;;;;;;;18.98;19.40;100425.78;4373714;32;32840;-80
2022/04/14 08:43:45;;;;;;;;;;;;;;;18.53;21.98;100426.66;4372714;32;35849;-82
2022/04/14 08:46:12;;;;;;;;;;;;;;;18.88;21.50;100419.81;4373438;32;33623;-82
2022/04/14 08:48:40;;;;;;;;;;;;;;;18.80;22.94;100426.09;4373107;32;34110;-82
2022/04/14 08:51:08;;;;;;;;;;;;;;;19.11;20.43;100428.69;4372677;32;34129;-84
2022/04/14 08:53:35;;;;;;;;;;;;;;;18.67;21.91;100427.72;4359122;32;35400;-81
2022/04/14 08:56:04;;;;;;;;;;;;;;;18.52;22.30;100427.66;4371751;32;33653;-80
2022/04/14 08:58:31;;;;;;;;;;;;;;;18.59;22.02;100425.94;4371421;32;35603;-81
2022/04/14 09:01:00;;;;;;;;;;;;;;;18.29;21.40;100429.53;4370747;32;35367;-81
2022/04/14 09:03:47;;;;;;;;;;;;;;;18.26;21.73;100427.16;4373954;32;32300;-82
2022/04/14 09:06:15;;;;;;;;;;;;;;;18.64;23.34;100428.94;4371485;32;33713;-82
2022/04/14 09:08:46;;;;;;;;;;;;;;;18.94;22.22;100429.84;4359150;32;34997;-82
2022/04/14 09:11:14;;;;;;;;;;;;;;;19.18;21.97;100433.19;4369730;32;35251;-81
2022/04/14 09:13:43;;;;;;;;;;;;;;;18.69;20.58;100429.22;4371345;32;35615;-81
2022/04/14 09:16:11;;;;;;;;;;;;;;;19.09;22.57;100431.56;4371700;32;33889;-81
2022/04/14 09:18:39;;;;;;;;;;;;;;;19.45;20.75;100429.06;4385586;32;34012;-80
2022/04/14 09:21:09;;;;;;;;;;;;;;;19.51;20.14;100420.19;4358672;32;36165;-81
2022/04/14 09:23:37;;;;;;;;;;;;;;;18.98;20.04;100423.91;4359572;32;34190;-82
2022/04/14 09:26:14;;;;;;;;;;;;;;;18.99;21.55;100424.75;4359001;32;32018;-82
2022/04/14 09:29:00;;;;;;;;;;;;;;;18.93;20.86;100426.34;4371388;32;34274;-83
2022/04/14 09:31:29;;;;;;;;;;;;;;;19.03;20.45;100420.66;4384551;32;35756;-82
2022/04/14 09:33:56;;;;;;;;;;;;;;;19.25;20.54;100417.13;4371201;32;34824;-81
2022/04/14 09:36:27;;;;;;;;;;;;;;;18.79;20.85;100429.00;4371427;32;34415;-80
2022/04/14 09:38:58;;;;;;;;;;;;;;;18.84;21.18;100419.34;4383454;32;34115;-81
2022/04/14 09:41:27;;;;;;;;;;;;;;;18.85;22.12;100420.16;4371546;32;34034;-81
2022/04/14 09:43:56;;;;;;;;;;;;;;;19.50;21.43;100413.97;4385003;32;37195;-82
2022/04/14 09:46:24;;;;;;;;;;;;;;;19.58;19.97;100410.34;4358527;32;32496;-81
2022/04/14 09:49:18;;;;;;;;;;;;;;;19.79;20.08;100407.69;4371264;32;34843;-81
2022/04/14 09:51:46;;;;;;;;;;;;;;;19.97;19.20;100405.44;4380967;32;34471;-82
2022/04/14 09:54:15;;;;;;;;;;;;;;;20.13;20.00;100406.09;4368699;32;35208;-82
2022/04/14 09:56:46;;;;;;;;;;;;;;;20.44;18.58;100401.22;4369664;32;32919;-80
2022/04/14 09:59:15;;;;;;;;;;;;;;;19.83;18.74;100400.91;4368977;32;33923;-81
2022/04/14 10:01:44;;;;;;;;;;;;;;;19.70;18.91;100409.69;4368846;32;36075;-81
2022/04/14 10:04:30;;;;;;;;;;;;;;;20.24;18.99;100402.03;4369469;32;33688;-81
2022/04/14 10:07:02;;;;;;;;;;;;;;;20.17;19.22;100395.72;4379420;32;34367;-84
2022/04/14 10:09:30;;;;;;;;;;;;;;;20.08;18.77;100386.91;4370904;32;34332;-82
2022/04/14 10:11:58;;;;;;;;;;;;;;;19.95;20.58;100400.25;4364169;32;35267;-84
2022/04/14 10:14:26;;;;;;;;;;;;;;;20.23;19.15;100390.41;4397871;27;35026;-81
2022/04/14 10:16:56;;;;;;;;;;;;;;;20.53;19.22;100381.16;4397085;32;33598;-83
2022/04/14 10:19:24;;;;;;;;;;;;;;;20.40;19.52;100380.19;4395171;32;33312;-86
2022/04/14 10:22:00;;;;;;;;;;;;;;;20.37;19.97;100391.41;4398923;32;36087;-86
2022/04/14 10:24:30;;;;;;;;;;;;;;;20.30;19.99;100382.38;4399859;32;34198;-88
2022/04/14 10:27:18;;;;;;;;;;;;;;;20.82;18.54;100373.72;4392412;32;33926;-93
2022/04/14 10:29:50;;;;;;;;;;;;;;;21.25;20.24;100372.59;4387888;32;34072;-90
2022/04/14 10:32:23;;;;;;;;;;;;;;;20.77;20.71;100362.66;4376855;32;34437;-93
2022/04/14 10:35:10;;;;;;;;;;;;;;;21.28;20.65;100369.53;4377552;32;33542;-91
2022/04/14 10:37:48;;;;;;;;;;;;;;;21.70;19.11;100371.22;4389001;32;33633;-91
2022/04/14 10:40:16;;;;;;;;;;;;;;;21.65;17.96;100363.69;4399396;32;33860;-88
2022/04/14 10:42:52;;;;;;;;;;;;;;;21.99;17.69;100365.50;4399705;32;34533;-89
2022/04/14 10:45:59;;;;;;;;;;;;;;;21.58;18.37;100360.09;4400931;32;35940;-95
2022/04/14 10:48:40;;;;;;;;;;;;;;;21.44;19.36;100362.94;4386778;32;32207;-91
2022/04/14 10:51:28;;;;;;;;;;;;;;;21.68;20.36;100352.47;4399207;32;35947;-90
2022/04/14 10:54:19;;;;;;;;;;;;;;;22.18;17.43;100353.91;4400078;32;34211;-89
2022/04/14 10:57:07;;;;;;;;;;;;;;;22.23;17.54;100354.94;4399690;32;34613;-89
2022/04/14 10:59:58;;;;;;;;;;;;;;;22.17;20.08;100349.53;4401182;32;34244;-90
2022/04/14 11:02:49;;;;;;;;;;;;;;;22.21;19.18;100356.19;4392986;32;32920;-88
2022/04/14 11:05:36;;;;;;;;;;;;;;;22.50;17.17;100351.28;4388935;32;35128;-88
2022/04/14 11:08:27;;;;;;;;;;;;;;;22.57;17.45;100352.09;4373243;32;34481;-90
2022/04/14 11:11:16;;;;;;;;;;;;;;;22.43;18.83;100352.28;4393831;32;33535;-88
2022/04/14 11:14:07;;;;;;;;;;;;;;;22.73;16.90;100348.16;4389158;32;34688;-88
2022/04/14 11:16:46;;;;;;;;;;;;;;;23.01;19.11;100346.88;4397527;32;35046;-90
2022/04/14 11:19:18;;;;;;;;;;;;;;;23.02;17.30;100342.28;4400076;32;33603;-87
2022/04/14 11:22:09;;;;;;;;;;;;;;;23.42;16.55;100330.31;4388023;32;33642;-90
2022/04/14 11:24:40;;;;;;;;;;;;;;;22.70;17.40;100335.00;4373034;32;32827;-89
2022/04/14 11:27:24;;;;;;;;;;;;;;;22.91;16.48;100329.34;4386087;32;34399;-88
2022/04/14 11:30:31;;;;;;;;;;;;;;;23.25;16.15;100329.97;4398338;32;34891;-89
2022/04/14 11:33:14;;;;;;;;;;;;;;;24.40;15.38;100324.19;4398237;32;33555;-88
2022/04/14 11:36:18;;;;;;;;;;;;;;;25.50;13.84;100316.06;4398861;32;34032;-88
2022/04/14 11:39:01;;;;;;;;;;;;;;;25.79;14.52;100312.56;4397974;32;35592;-87
2022/04/14 11:41:50;;;;;;;;;;;;;;;26.38;13.18;100307.97;4399051;32;34656;-88
2022/04/14 11:44:34;;;;;;;;;;;;;;;27.25;15.43;100302.47;4397813;32;32999;-88
2022/04/14 11:47:21;;;;;;;;;;;;;;;26.72;12.89;100296.31;4398910;32;34163;-87
2022/04/14 11:49:53;;;;;;;;;;;;;;;27.21;12.48;100293.12;4399503;32;35769;-86
2022/04/14 11:52:21;;;;;;;;;;;;;;;26.14;12.81;100291.75;4397821;32;35377;-89
2022/04/14 11:54:58;;;;;;;;;;;;;;;25.42;13.69;100306.31;4386338;32;32634;-92
2022/04/14 11:57:29;;;;;;;;;;;;;;;25.63;14.70;100305.00;4398234;32;34205;-94
2022/04/14 12:00:11;;;;;;;;;;;;;;;26.04;14.56;100300.50;4386528;32;34666;-95
2022/04/14 12:03:01;;;;;;;;;;;;;;;26.91;13.44;100286.94;4398782;32;34929;-90
2022/04/14 12:05:43;;;;;;;;;;;;;;;27.42;13.43;100287.84;4398125;32;33309;-90
2022/04/14 12:08:13;;;;;;;;;;;;;;;26.54;13.25;100287.38;4399841;32;34570;-92
2022/04/14 12:10:44;;;;;;;;;;;;;;;26.90;13.64;100287.97;4399676;32;35180;-91
2022/04/14 12:13:11;;;;;;;;;;;;;;;26.22;13.28;100278.59;4396703;32;33432;-89
2022/04/14 12:15:41;;;;;;;;;;;;;;;25.43;13.68;100285.34;4398554;32;34037;-92
2022/04/14 12:18:17;;;;;;;;;;;;;;;25.37;14.65;100272.62;4399029;32;34470;-90
2022/04/14 12:20:46;;;;;;;;;;;;;;;25.18;14.46;100266.34;4385458;32;36051;-92
2022/04/14 12:23:17;;;;;;;;;;;;;;;25.10;14.97;100260.38;4399525;32;36686;-89
2022/04/14 12:25:46;;;;;;;;;;;;;;;24.41;14.86;100262.47;4385327;32;33487;-91
2022/04/14 12:28:19;;;;;;;;;;;;;;;25.08;14.96;100252.41;4387042;32;32969;-90
2022/04/14 12:30:47;;;;;;;;;;;;;;;24.14;15.47;100250.97;4400155;32;35300;-93
2022/04/14 12:33:23;;;;;;;;;;;;;;;24.07;14.55;100244.72;4400805;32;33440;-94
2022/04/14 12:36:36;;;;;;;;;;;;;;;24.51;15.49;100241.88;4366386;32;33826;-94
2022/04/14 12:39:19;;;;;;;;;;;;;;;25.46;16.65;100247.59;4352801;32;33633;-94
2022/04/14 12:42:03;;;;;;;;;;;;;;;26.08;14.71;100235.41;4364882;32;34005;-93
2022/04/14 12:44:50;;;;;;;;;;;;;;;25.88;13.27;100232.16;4359629;32;33467;-96
2022/04/14 12:47:53;;;;;;;;;;;;;;;25.16;13.75;100234.94;4393403;32;33021;-95
2022/04/14 12:50:41;;;;;;;;;;;;;;;25.64;13.50;100228.47;4388138;32;34594;-95
2022/04/14 12:53:29;;;;;;;;;;;;;;;25.88;13.48;100221.25;4389629;32;36329;-93
2022/04/14 12:56:11;;;;;;;;;;;;;;;25.82;12.99;100213.97;4375665;32;33176;-94
2022/04/14 12:59:06;;;;;;;;;;;;;;;25.98;12.71;100211.44;4397814;32;32624;-95
2022/04/14 13:01:54;;;;;;;;;;;;;;;26.06;12.64;100210.28;4384982;32;34515;-92
2022/04/14 13:04:39;;;;;;;;;;;;;;;25.99;12.92;100207.66;4395044;32;36402;-96
2022/04/14 13:07:29;;;;;;;;;;;;;;;26.36;12.56;100200.13;4395803;32;34630;-96
2022/04/14 13:10:29;;;;;;;;;;;;;;;26.32;14.89;100193.47;4394001;32;31685;-93
2022/04/14 13:13:29;;;;;;;;;;;;;;;27.32;14.98;100186.53;4377330;32;33353;-92
2022/04/14 13:16:05;;;;;;;;;;;;;;;26.98;11.72;100193.94;4392971;32;35553;-90
2022/04/14 13:18:54;;;;;;;;;;;;;;;26.66;11.81;100188.06;4395347;32;34632;-93
2022/04/14 13:21:51;;;;;;;;;;;;;;;25.96;12.70;100196.37;4395520;32;32159;-92
2022/04/14 13:24:24;;;;;;;;;;;;;;;26.34;13.29;100188.63;4381027;32;33628;-92